Terminal Aerodrome Forecast
Issued by NWS Louisville, KY

Home | Current Version | Previous Version | Text Only | Print | Product List | Glossary On
Versions: 1 2 3 4 5 6 7 8 9 10 11 12 13 14 15 16 17 18 19
167
FTUS43 KLMK 071120
TAFLEX
TAF
KLEX 071120Z 0712/0812 21005KT P6SM FEW250
     FM071500 22012G20KT P6SM SCT120
     FM080000 22007KT P6SM BKN060
     FM080700 22008KT 6SM -SHRA BKN035
     FM081000 25007KT 5SM -SHRA BKN018=

USA.gov is the U.S. government's official web portal to all federal, state and local government web resources and services.